createdAt,value
2019-04-24T00:02:51.349Z,18.50
2019-04-24T00:04:03.732Z,18.60
2019-04-24T00:05:20.958Z,18.60
2019-04-24T00:06:48.407Z,18.50
2019-04-24T00:08:00.729Z,18.50
2019-04-24T00:10:17.871Z,18.50
2019-04-24T00:11:38.017Z,18.60
2019-04-24T00:13:13.771Z,18.50
2019-04-24T00:14:27.238Z,18.50
2019-04-24T00:16:55.242Z,18.60
2019-04-24T00:20:28.829Z,18.60
2019-04-24T00:22:27.713Z,18.60
2019-04-24T00:23:51.355Z,18.50
2019-04-24T00:24:59.622Z,18.50
2019-04-24T00:25:51.563Z,18.50
2019-04-24T00:27:04.871Z,18.60
2019-04-24T00:29:24.392Z,18.50
2019-04-24T00:30:20.724Z,18.50
2019-04-24T00:31:35.103Z,18.50
2019-04-24T00:32:33.251Z,18.50
2019-04-24T00:34:19.634Z,18.50
2019-04-24T00:34:54.359Z,18.50
2019-04-24T00:36:32.414Z,18.50
2019-04-24T00:38:31.124Z,18.50
2019-04-24T00:39:41.592Z,18.50
2019-04-24T00:40:58.238Z,18.50
2019-04-24T00:43:18.999Z,18.50
2019-04-24T00:44:06.377Z,18.50
2019-04-24T00:45:27.790Z,18.50
2019-04-24T00:46:34.882Z,18.50
2019-04-24T00:48:39.043Z,18.50
2019-04-24T00:50:56.243Z,18.50
2019-04-24T00:51:57.373Z,18.40
2019-04-24T00:53:32.232Z,18.50
2019-04-24T00:54:15.069Z,18.50
2019-04-24T00:55:16.017Z,18.40
2019-04-24T00:57:41.132Z,18.40
2019-04-24T00:58:44.026Z,18.40
2019-04-24T01:01:29.439Z,18.40
2019-04-24T01:02:36.746Z,18.40
2019-04-24T01:05:39.591Z,18.40
2019-04-24T01:08:19.638Z,18.30
2019-04-24T01:09:28.577Z,18.40
2019-04-24T01:10:54.321Z,18.30
2019-04-24T01:11:51.158Z,18.30
2019-04-24T01:13:02.439Z,18.30
2019-04-24T01:14:12.408Z,18.30
2019-04-24T01:15:23.973Z,18.30
2019-04-24T01:18:24.902Z,18.20
2019-04-24T01:19:37.169Z,18.20
2019-04-24T01:21:49.796Z,18.20
2019-04-24T01:23:26.853Z,18.20
2019-04-24T01:24:07.016Z,18.20
2019-04-24T01:25:21.796Z,18.20
2019-04-24T01:26:22.549Z,18.20
2019-04-24T01:27:13.361Z,18.10
2019-04-24T01:28:27.790Z,18.10
2019-04-24T01:29:32.064Z,18.10
2019-04-24T01:31:19.199Z,18.10
2019-04-24T01:32:26.956Z,18.10
2019-04-24T01:33:34.915Z,18.10
2019-04-24T01:36:10.168Z,18.10
2019-04-24T01:37:34.584Z,18.10
2019-04-24T01:38:36.055Z,18.10
2019-04-24T01:41:26.222Z,18.10
2019-04-24T01:43:34.474Z,18.10
2019-04-24T01:44:39.271Z,18.10
2019-04-24T01:45:54.647Z,18.10
2019-04-24T01:46:59.226Z,18.10
2019-04-24T01:48:16.407Z,18.10
2019-04-24T01:49:17.005Z,18.20
2019-04-24T01:53:29.913Z,18.20
2019-04-24T01:54:44.780Z,18.20
2019-04-24T01:55:48.270Z,18.20
2019-04-24T01:56:59.755Z,18.20
2019-04-24T01:58:06.917Z,18.20
2019-04-24T01:59:11.566Z,18.20
2019-04-24T02:00:14.035Z,18.20
2019-04-24T02:03:39.422Z,18.30
2019-04-24T02:04:52.635Z,18.30
2019-04-24T02:05:56.163Z,18.30
2019-04-24T02:07:09.711Z,18.30
2019-04-24T02:08:21.860Z,18.30
2019-04-24T02:09:36.578Z,18.30
2019-04-24T02:12:00.596Z,18.40
2019-04-24T02:16:27.881Z,18.40
2019-04-24T02:17:36.350Z,18.40
2019-04-24T02:21:59.096Z,18.30
2019-04-24T02:27:40.205Z,18.30
2019-04-24T02:28:45.504Z,18.30
2019-04-24T02:29:41.146Z,18.30
2019-04-24T02:31:23.312Z,18.30
2019-04-24T02:34:52.836Z,18.20
2019-04-24T02:36:17.457Z,18.30
2019-04-24T02:37:23.441Z,18.30
2019-04-24T02:38:39.988Z,18.40
2019-04-24T02:42:37.562Z,18.30
2019-04-24T02:45:51.638Z,18.30
2019-04-24T02:46:54.141Z,18.30
2019-04-24T02:48:00.818Z,18.30
2019-04-24T02:51:22.931Z,18.30
2019-04-24T02:53:31.049Z,18.30
2019-04-24T02:54:54.960Z,18.30
2019-04-24T02:55:42.199Z,18.30
2019-04-24T02:59:05.137Z,18.30
2019-04-24T03:01:14.635Z,18.30
2019-04-24T03:04:44.023Z,18.30
2019-04-24T03:05:57.739Z,18.30
2019-04-24T03:07:39.705Z,18.30
2019-04-24T03:09:31.292Z,18.30
2019-04-24T03:11:47.442Z,18.30
2019-04-24T03:14:48.969Z,18.20
2019-04-24T03:15:48.894Z,18.20
2019-04-24T03:17:22.319Z,18.20
2019-04-24T03:18:27.534Z,18.20
2019-04-24T03:20:46.039Z,18.20
2019-04-24T03:21:42.329Z,18.20
2019-04-24T03:22:40.837Z,18.20
2019-04-24T03:24:07.305Z,18.20
2019-04-24T03:28:29.846Z,18.20
2019-04-24T03:31:17.516Z,18.20
2019-04-24T03:34:44.205Z,18.20
2019-04-24T03:39:00.116Z,18.20
2019-04-24T03:43:03.537Z,18.20
2019-04-24T03:52:36.562Z,18.20
2019-04-24T03:55:35.610Z,18.20
2019-04-24T03:56:38.516Z,18.20
2019-04-24T04:00:36.437Z,18.20
2019-04-24T04:05:23.573Z,18.10
2019-04-24T04:06:29.780Z,18.10
2019-04-24T04:07:25.852Z,18.10
2019-04-24T04:08:49.501Z,18.10
2019-04-24T04:12:41.443Z,18.10
2019-04-24T04:13:31.798Z,18.10
2019-04-24T04:14:34.796Z,18.00
2019-04-24T04:18:12.860Z,18.00
2019-04-24T04:19:05.651Z,18.00
2019-04-24T04:20:13.124Z,18.00
2019-04-24T04:21:17.069Z,18.00
2019-04-24T04:24:40.742Z,18.00
2019-04-24T04:26:26.037Z,18.00
2019-04-24T04:27:45.894Z,18.00
2019-04-24T04:28:37.448Z,18.00
2019-04-24T04:31:28.880Z,18.00
2019-04-24T04:34:14.765Z,18.00
2019-04-24T04:35:09.374Z,18.00
2019-04-24T04:36:34.563Z,18.00
2019-04-24T04:37:28.665Z,18.00
2019-04-24T04:42:31.833Z,17.90
2019-04-24T04:43:51.170Z,17.90
2019-04-24T04:44:44.633Z,17.90
2019-04-24T04:46:02.943Z,17.90
2019-04-24T04:47:18.198Z,17.90
2019-04-24T04:48:46.922Z,17.90
2019-04-24T04:51:15.389Z,17.90
2019-04-24T04:53:30.770Z,17.80
2019-04-24T04:59:05.429Z,17.80
2019-04-24T05:00:29.809Z,17.80
2019-04-24T05:03:15.681Z,17.80
2019-04-24T05:04:37.571Z,17.80
2019-04-24T05:07:51.594Z,17.70
2019-04-24T05:09:57.096Z,17.70
2019-04-24T05:11:04.381Z,17.70
2019-04-24T05:12:33.932Z,17.80
2019-04-24T05:13:13.736Z,17.70
2019-04-24T05:14:42.344Z,17.80
2019-04-24T05:20:24.538Z,17.80
2019-04-24T05:21:22.201Z,17.80
2019-04-24T05:22:20.689Z,17.70
2019-04-24T05:24:32.514Z,17.80
2019-04-24T05:28:37.008Z,17.80
2019-04-24T05:29:48.513Z,17.80
2019-04-24T05:31:36.127Z,17.80
2019-04-24T05:33:03.429Z,17.80
2019-04-24T05:33:56.735Z,17.80
2019-04-24T05:36:19.766Z,17.80
2019-04-24T05:41:32.637Z,17.80
2019-04-24T05:42:47.966Z,17.80
2019-04-24T05:46:18.984Z,17.80
2019-04-24T05:47:44.061Z,17.80
2019-04-24T05:48:52.572Z,17.80
2019-04-24T05:49:56.306Z,17.90
2019-04-24T05:51:14.047Z,17.80
2019-04-24T05:52:36.102Z,17.80
2019-04-24T05:54:58.722Z,17.90
2019-04-24T05:56:26.506Z,17.90
2019-04-24T05:59:40.790Z,18.00
2019-04-24T06:01:11.484Z,18.00
2019-04-24T06:05:24.123Z,18.00
2019-04-24T06:08:08.049Z,18.10
2019-04-24T06:09:08.350Z,18.10
2019-04-24T06:10:21.578Z,18.10
2019-04-24T06:11:37.094Z,18.10
2019-04-24T06:12:37.015Z,18.10
2019-04-24T06:13:45.040Z,18.10
2019-04-24T06:15:47.112Z,18.10
2019-04-24T06:17:08.465Z,18.10
2019-04-24T06:18:44.639Z,18.10
2019-04-24T06:20:32.533Z,18.10
2019-04-24T06:23:50.274Z,18.10
2019-04-24T06:24:34.643Z,18.20
2019-04-24T06:26:15.998Z,18.20
2019-04-24T06:28:01.813Z,18.30
2019-04-24T06:30:27.586Z,18.30
2019-04-24T06:32:05.451Z,18.40
2019-04-24T06:34:01.812Z,18.40
2019-04-24T06:37:03.354Z,18.40
2019-04-24T06:41:03.803Z,18.50
2019-04-24T06:44:16.268Z,18.60
2019-04-24T06:45:23.117Z,18.50
2019-04-24T06:46:36.368Z,18.60
2019-04-24T06:48:41.152Z,18.60
2019-04-24T06:49:43.360Z,18.60
2019-04-24T06:51:01.755Z,18.60
2019-04-24T06:52:12.415Z,18.60
2019-04-24T06:54:19.249Z,18.60
2019-04-24T06:57:52.235Z,18.60
2019-04-24T06:58:45.685Z,18.60
2019-04-24T07:00:26.019Z,18.60
2019-04-24T07:01:29.864Z,18.60
2019-04-24T07:03:00.300Z,18.60
2019-04-24T07:05:59.896Z,18.60
2019-04-24T07:07:33.526Z,18.60
2019-04-24T07:08:04.801Z,18.60
2019-04-24T07:09:55.423Z,18.60
2019-04-24T07:12:46.993Z,18.60
2019-04-24T07:14:09.807Z,18.60
2019-04-24T07:15:27.423Z,18.60
2019-04-24T07:17:52.271Z,18.60
2019-04-24T07:19:15.506Z,18.60
2019-04-24T07:20:44.539Z,18.70
2019-04-24T07:21:48.588Z,18.70
2019-04-24T07:23:10.553Z,18.70
2019-04-24T07:24:24.503Z,18.80
2019-04-24T07:25:34.726Z,18.70
2019-04-24T07:26:35.673Z,18.70
2019-04-24T07:27:54.041Z,18.70
2019-04-24T07:30:19.798Z,18.80
2019-04-24T07:31:46.292Z,18.80
2019-04-24T07:35:03.502Z,18.80
2019-04-24T07:36:31.553Z,18.80
2019-04-24T07:37:29.123Z,18.70
2019-04-24T07:38:31.426Z,18.80
2019-04-24T07:39:50.493Z,18.80
2019-04-24T07:41:08.195Z,18.70
2019-04-24T07:42:08.437Z,18.80
2019-04-24T07:43:44.261Z,18.80
2019-04-24T07:44:21.526Z,18.80
2019-04-24T07:45:40.137Z,18.80
2019-04-24T07:46:47.680Z,18.80
2019-04-24T07:47:47.912Z,18.80
2019-04-24T07:50:19.887Z,18.90
2019-04-24T07:51:25.302Z,19.00
2019-04-24T07:52:40.607Z,19.00
2019-04-24T07:54:58.228Z,19.10
2019-04-24T07:56:09.040Z,19.20
2019-04-24T07:57:28.859Z,19.20
2019-04-24T07:58:41.080Z,19.20
2019-04-24T07:59:59.538Z,19.20
2019-04-24T08:03:17.841Z,19.30
2019-04-24T08:05:46.492Z,19.30
2019-04-24T08:09:51.499Z,19.40
2019-04-24T08:10:45.106Z,19.40
2019-04-24T08:11:59.355Z,19.40
2019-04-24T08:15:14.019Z,19.40
2019-04-24T08:17:31.348Z,19.30
2019-04-24T08:19:54.474Z,19.30
2019-04-24T08:22:17.078Z,19.30
2019-04-24T08:23:18.104Z,19.30
2019-04-24T08:31:21.679Z,19.40
2019-04-24T08:33:40.969Z,19.50
2019-04-24T08:34:41.220Z,19.50
2019-04-24T08:36:35.606Z,19.60
2019-04-24T08:37:07.865Z,19.60
2019-04-24T08:39:18.724Z,19.60
2019-04-24T08:42:11.841Z,19.60
2019-04-24T08:44:30.587Z,19.90
2019-04-24T08:45:32.119Z,19.90
2019-04-24T08:47:03.968Z,20.00
2019-04-24T08:51:03.781Z,20.20
2019-04-24T08:52:05.831Z,20.20
2019-04-24T08:53:01.742Z,20.30
2019-04-24T08:55:33.180Z,20.30
2019-04-24T08:56:38.998Z,20.40
2019-04-24T08:59:08.160Z,20.40
2019-04-24T09:00:16.010Z,20.50
2019-04-24T09:01:40.913Z,20.50
2019-04-24T09:04:15.490Z,20.50
2019-04-24T09:05:11.365Z,20.50
2019-04-24T09:06:29.828Z,20.50
2019-04-24T09:07:59.310Z,20.50
2019-04-24T09:12:17.028Z,20.60
2019-04-24T09:14:40.987Z,20.70
2019-04-24T09:16:19.042Z,20.80
2019-04-24T09:20:07.773Z,20.90
2019-04-24T09:21:03.301Z,21.00
2019-04-24T09:22:06.257Z,21.00
2019-04-24T09:23:42.223Z,21.10
2019-04-24T09:26:46.218Z,21.30
2019-04-24T09:27:48.970Z,21.30
2019-04-24T09:29:05.761Z,21.40
2019-04-24T09:33:09.543Z,21.40
2019-04-24T09:36:47.298Z,21.50
2019-04-24T09:38:10.745Z,21.60
2019-04-24T09:39:38.678Z,21.60
2019-04-24T09:42:29.671Z,21.60
2019-04-24T09:45:36.574Z,21.70
2019-04-24T09:46:41.507Z,21.80
2019-04-24T09:48:02.890Z,21.80
2019-04-24T09:50:13.090Z,21.90
2019-04-24T09:51:17.907Z,21.90
2019-04-24T09:52:29.173Z,22.00
2019-04-24T09:53:54.665Z,22.00
2019-04-24T09:55:10.538Z,22.10
2019-04-24T09:56:33.979Z,22.20
2019-04-24T09:57:42.176Z,22.20
2019-04-24T09:59:01.076Z,22.20
2019-04-24T10:03:38.806Z,22.50
2019-04-24T10:06:05.198Z,22.50
2019-04-24T10:08:29.455Z,22.60
2019-04-24T10:09:40.954Z,22.50
2019-04-24T10:13:05.803Z,22.50
2019-04-24T10:14:36.765Z,22.60
2019-04-24T10:15:48.997Z,22.60
2019-04-24T10:17:57.792Z,22.60
2019-04-24T10:20:22.551Z,22.70
2019-04-24T10:21:45.726Z,22.70
2019-04-24T10:23:07.303Z,22.70
2019-04-24T10:24:27.144Z,22.70
2019-04-24T10:25:31.182Z,22.70
2019-04-24T10:26:46.713Z,22.80
2019-04-24T10:28:21.571Z,22.80
2019-04-24T10:29:34.645Z,22.90
2019-04-24T10:30:53.867Z,22.90
2019-04-24T10:32:20.507Z,22.90
2019-04-24T10:34:00.688Z,23.00
2019-04-24T10:35:21.367Z,23.00
2019-04-24T10:36:41.412Z,23.00
2019-04-24T10:38:20.514Z,23.00
2019-04-24T10:39:39.277Z,23.00
2019-04-24T10:41:49.113Z,23.10
2019-04-24T10:44:21.939Z,23.20
2019-04-24T10:45:31.677Z,23.30
2019-04-24T10:47:23.323Z,23.30
2019-04-24T10:48:18.586Z,23.40
2019-04-24T10:49:38.412Z,23.40
2019-04-24T10:50:51.243Z,23.40
2019-04-24T10:54:12.194Z,23.50
2019-04-24T10:55:38.345Z,23.50
2019-04-24T10:56:36.483Z,23.50
2019-04-24T11:00:04.088Z,23.60
2019-04-24T11:04:16.916Z,23.70
2019-04-24T11:07:07.300Z,23.70
2019-04-24T11:09:29.763Z,23.80
2019-04-24T11:10:45.660Z,23.80
2019-04-24T11:12:07.949Z,23.90
2019-04-24T11:13:19.698Z,24.00
2019-04-24T11:16:39.355Z,24.10
2019-04-24T11:17:45.215Z,24.20
2019-04-24T11:19:19.922Z,24.40
2019-04-24T11:20:59.761Z,24.50
2019-04-24T11:23:37.406Z,24.90
2019-04-24T11:24:39.876Z,25.10
2019-04-24T11:26:11.286Z,25.30
2019-04-24T11:27:13.987Z,25.50
2019-04-24T11:29:53.630Z,26.50
2019-04-24T11:31:00.911Z,27.30
2019-04-24T11:33:47.532Z,28.90
2019-04-24T11:36:15.792Z,30.50
2019-04-24T11:37:43.693Z,31.20
2019-04-24T11:43:06.364Z,33.40
2019-04-24T11:44:16.426Z,33.80
2019-04-24T11:45:53.106Z,34.20
2019-04-24T11:49:05.509Z,34.60
2019-04-24T11:51:58.898Z,34.60
2019-04-24T11:54:40.078Z,34.20
2019-04-24T11:58:22.020Z,34.40
2019-04-24T11:59:07.776Z,34.50
2019-04-24T12:00:26.017Z,34.60
2019-04-24T12:03:14.327Z,34.90
2019-04-24T12:04:50.374Z,35.10
2019-04-24T12:05:51.640Z,35.40
2019-04-24T12:09:29.912Z,36.20
2019-04-24T12:10:37.102Z,36.30
2019-04-24T12:11:56.629Z,36.40
2019-04-24T12:13:51.393Z,36.20
2019-04-24T12:16:44.878Z,35.80
2019-04-24T12:18:20.091Z,35.80
2019-04-24T12:19:28.897Z,36.00
2019-04-24T12:21:00.389Z,36.20
2019-04-24T12:23:55.075Z,36.50
2019-04-24T12:24:54.943Z,36.70
2019-04-24T12:26:57.211Z,36.80
2019-04-24T12:28:28.147Z,36.60
2019-04-24T12:29:35.401Z,36.60
2019-04-24T12:30:46.757Z,36.60
2019-04-24T12:32:22.042Z,36.50
2019-04-24T12:33:38.749Z,36.50
2019-04-24T12:34:43.985Z,37.00
2019-04-24T12:35:56.707Z,37.20
2019-04-24T12:37:13.663Z,37.30
2019-04-24T12:38:14.059Z,37.70
2019-04-24T12:39:14.993Z,37.60
2019-04-24T12:40:53.780Z,37.30
2019-04-24T12:42:01.122Z,37.00
2019-04-24T12:43:05.131Z,37.60
2019-04-24T12:44:26.566Z,38.00
2019-04-24T12:45:39.217Z,38.20
2019-04-24T12:46:53.758Z,38.60
2019-04-24T12:47:40.878Z,38.90
2019-04-24T12:48:56.499Z,38.90
2019-04-24T12:51:04.863Z,38.90
2019-04-24T12:52:15.296Z,38.50
2019-04-24T12:53:38.387Z,37.60
2019-04-24T12:54:46.918Z,36.80
2019-04-24T12:56:07.638Z,36.00
2019-04-24T12:59:01.069Z,34.60
2019-04-24T13:00:24.422Z,33.80
2019-04-24T13:03:05.612Z,32.30
2019-04-24T13:05:41.276Z,31.30
2019-04-24T13:06:38.631Z,30.90
2019-04-24T13:09:13.982Z,30.40
2019-04-24T13:10:15.564Z,30.20
2019-04-24T13:11:23.209Z,30.00
2019-04-24T13:12:51.381Z,29.90
2019-04-24T13:16:39.080Z,29.20
2019-04-24T13:17:54.192Z,28.90
2019-04-24T13:19:11.608Z,28.80
2019-04-24T13:19:28.708Z,28.70
2019-04-24T13:20:37.521Z,28.60
2019-04-24T13:21:47.250Z,28.50
2019-04-24T13:22:58.044Z,28.40
2019-04-24T13:24:09.388Z,28.30
2019-04-24T13:27:16.827Z,28.30
2019-04-24T13:30:17.919Z,28.20
2019-04-24T13:35:04.633Z,28.00
2019-04-24T13:36:14.949Z,27.90
2019-04-24T13:37:08.477Z,27.80
2019-04-24T13:38:18.678Z,27.70
2019-04-24T13:39:30.539Z,27.60
2019-04-24T13:40:32.284Z,27.60
2019-04-24T13:41:49.067Z,27.50
2019-04-24T13:42:48.224Z,27.50
2019-04-24T13:45:02.729Z,27.50
2019-04-24T13:46:03.100Z,27.50
2019-04-24T13:47:09.787Z,27.40
2019-04-24T13:49:19.867Z,27.40
2019-04-24T13:50:34.619Z,27.30
2019-04-24T13:51:44.581Z,27.30
2019-04-24T13:53:19.948Z,27.30
2019-04-24T13:54:03.790Z,27.20
2019-04-24T13:55:03.937Z,27.10
2019-04-24T13:57:09.197Z,26.90
2019-04-24T13:59:46.356Z,26.90
2019-04-24T14:00:57.967Z,26.90
2019-04-24T14:02:09.578Z,26.80
2019-04-24T14:04:22.052Z,26.80
2019-04-24T14:05:25.524Z,26.90
2019-04-24T14:07:51.659Z,26.80
2019-04-24T14:10:26.059Z,26.80
2019-04-24T14:12:46.018Z,26.70
2019-04-24T14:13:04.608Z,26.70
2019-04-24T14:14:39.038Z,26.70
2019-04-24T14:15:33.582Z,26.80
2019-04-24T14:16:34.468Z,26.80
2019-04-24T14:17:54.847Z,26.80
2019-04-24T14:19:05.401Z,26.70
2019-04-24T14:21:39.469Z,26.60
2019-04-24T14:23:02.626Z,26.50
2019-04-24T14:25:17.548Z,26.30
2019-04-24T14:26:10.475Z,26.30
2019-04-24T14:27:17.103Z,26.20
2019-04-24T14:29:40.641Z,26.30
2019-04-24T14:30:52.972Z,26.20
2019-04-24T14:31:59.012Z,26.20
2019-04-24T14:34:24.188Z,26.20
2019-04-24T14:35:24.911Z,26.20
2019-04-24T14:37:33.183Z,26.20
2019-04-24T14:38:41.407Z,26.20
2019-04-24T14:39:50.055Z,26.20
2019-04-24T14:40:50.730Z,26.20
2019-04-24T14:43:21.525Z,26.20
2019-04-24T14:44:55.660Z,26.10
2019-04-24T14:47:38.070Z,25.90
2019-04-24T14:48:56.101Z,26.00
2019-04-24T14:50:52.847Z,26.00
2019-04-24T14:53:09.705Z,25.90
2019-04-24T14:54:21.873Z,25.90
2019-04-24T14:55:31.094Z,25.90
2019-04-24T14:56:40.744Z,25.90
2019-04-24T14:57:55.258Z,25.90
2019-04-24T14:59:08.020Z,25.90
2019-04-24T15:01:10.313Z,25.90
2019-04-24T15:02:17.586Z,25.90
2019-04-24T15:04:39.417Z,25.90
2019-04-24T15:05:36.150Z,25.90
2019-04-24T15:10:23.303Z,26.00
2019-04-24T15:11:29.671Z,26.00
2019-04-24T15:12:58.320Z,26.00
2019-04-24T15:16:23.343Z,26.00
2019-04-24T15:18:32.054Z,25.90
2019-04-24T15:19:44.098Z,25.80
2019-04-24T15:20:42.204Z,25.70
2019-04-24T15:22:13.538Z,25.70
2019-04-24T15:23:38.688Z,25.70
2019-04-24T15:24:40.760Z,25.70
2019-04-24T15:26:49.479Z,25.60
2019-04-24T15:29:14.563Z,25.60
2019-04-24T15:30:14.470Z,25.60
2019-04-24T15:31:13.990Z,25.50
2019-04-24T15:33:46.055Z,25.40
2019-04-24T15:35:46.072Z,25.30
2019-04-24T15:37:07.946Z,25.30
2019-04-24T15:38:02.470Z,25.40
2019-04-24T15:39:12.474Z,25.40
2019-04-24T15:40:35.415Z,25.40
2019-04-24T15:41:41.642Z,25.40
2019-04-24T15:42:53.582Z,25.50
2019-04-24T15:43:47.746Z,25.50
2019-04-24T15:46:05.202Z,25.50
2019-04-24T15:49:59.818Z,25.50
2019-04-24T15:51:39.157Z,25.40
2019-04-24T15:52:43.997Z,25.40
2019-04-24T15:53:52.237Z,25.40
2019-04-24T15:55:03.155Z,25.30
2019-04-24T15:56:09.044Z,25.30
2019-04-24T15:57:13.838Z,25.30
2019-04-24T15:58:27.717Z,25.30
2019-04-24T15:59:52.219Z,25.30
2019-04-24T16:01:14.202Z,25.30
2019-04-24T16:02:28.539Z,25.30
2019-04-24T16:03:38.620Z,25.30
2019-04-24T16:04:39.327Z,25.20
2019-04-24T16:05:08.277Z,25.20
2019-04-24T16:06:41.792Z,25.30
2019-04-24T16:07:52.553Z,25.20
2019-04-24T16:09:01.629Z,25.30
2019-04-24T16:10:18.455Z,25.30
2019-04-24T16:11:25.287Z,25.30
2019-04-24T16:12:31.080Z,25.20
2019-04-24T16:13:47.358Z,25.20
2019-04-24T16:15:11.900Z,25.30
2019-04-24T16:16:27.236Z,25.20
2019-04-24T16:17:22.749Z,25.20
2019-04-24T16:19:01.351Z,25.20
2019-04-24T16:19:52.287Z,25.20
2019-04-24T16:21:06.915Z,25.10
2019-04-24T16:26:46.097Z,25.00
2019-04-24T16:28:04.426Z,24.90
2019-04-24T16:29:06.685Z,24.90
2019-04-24T16:30:05.031Z,24.80
2019-04-24T16:31:12.925Z,24.80
2019-04-24T16:33:39.070Z,24.70
2019-04-24T16:34:39.078Z,24.70
2019-04-24T16:36:04.082Z,24.70
2019-04-24T16:37:01.774Z,24.60
2019-04-24T16:38:09.200Z,24.60
2019-04-24T16:39:08.346Z,24.60
2019-04-24T16:41:31.941Z,24.50
2019-04-24T16:43:13.245Z,24.50
2019-04-24T16:45:28.327Z,24.40
2019-04-24T16:48:24.169Z,24.30
2019-04-24T16:48:42.875Z,24.30
2019-04-24T16:51:18.126Z,24.30
2019-04-24T16:54:36.451Z,22.10
2019-04-24T16:55:44.348Z,20.80
2019-04-24T16:57:01.489Z,19.80
2019-04-24T16:58:13.320Z,19.10
2019-04-24T16:59:09.814Z,18.90
2019-04-24T17:02:42.552Z,18.30
2019-04-24T17:04:19.596Z,18.20
2019-04-24T17:06:20.204Z,17.50
2019-04-24T17:07:16.741Z,17.20
2019-04-24T17:08:31.391Z,17.00
2019-04-24T17:10:48.842Z,16.60
2019-04-24T17:13:05.196Z,16.10
2019-04-24T17:17:14.048Z,15.80
2019-04-24T17:18:12.030Z,15.70
2019-04-24T17:20:36.896Z,15.40
2019-04-24T17:22:56.454Z,15.40
2019-04-24T17:23:58.101Z,15.50
2019-04-24T17:25:20.854Z,15.40
2019-04-24T17:26:14.446Z,15.40
2019-04-24T17:29:48.515Z,15.00
2019-04-24T17:31:48.896Z,14.90
2019-04-24T17:34:09.502Z,14.80
2019-04-24T17:37:05.219Z,15.00
2019-04-24T17:38:40.677Z,15.20
2019-04-24T17:40:00.738Z,15.20
2019-04-24T17:41:24.296Z,15.20
2019-04-24T17:42:41.116Z,15.20
2019-04-24T17:46:15.078Z,15.00
2019-04-24T17:47:28.007Z,15.00
2019-04-24T17:48:40.052Z,14.90
2019-04-24T17:50:10.808Z,15.00
2019-04-24T17:50:57.122Z,14.80
2019-04-24T17:52:23.967Z,14.80
2019-04-24T17:53:11.697Z,14.80
2019-04-24T17:55:23.670Z,14.60
2019-04-24T17:56:41.871Z,14.50
2019-04-24T17:58:24.753Z,14.30
2019-04-24T17:59:33.140Z,14.40
2019-04-24T18:00:52.247Z,14.40
2019-04-24T18:02:15.094Z,14.50
2019-04-24T18:03:32.703Z,14.50
2019-04-24T18:04:43.435Z,14.50
2019-04-24T18:05:49.913Z,14.50
2019-04-24T18:06:54.668Z,14.50
2019-04-24T18:08:02.260Z,14.40
2019-04-24T18:09:12.460Z,14.40
2019-04-24T18:10:33.130Z,14.40
2019-04-24T18:11:42.053Z,14.50
2019-04-24T18:12:48.020Z,14.50
2019-04-24T18:13:52.819Z,14.50
2019-04-24T18:14:59.007Z,14.40
2019-04-24T18:16:12.424Z,14.40
2019-04-24T18:17:23.471Z,14.40
2019-04-24T18:18:28.377Z,14.40
2019-04-24T18:19:35.302Z,14.40
2019-04-24T18:20:44.815Z,14.40
2019-04-24T18:21:53.176Z,14.40
2019-04-24T18:22:57.967Z,14.40
2019-04-24T18:24:06.887Z,14.40
2019-04-24T18:25:29.592Z,14.40
2019-04-24T18:26:48.753Z,14.30
2019-04-24T18:27:55.515Z,14.50
2019-04-24T18:29:03.952Z,14.40
2019-04-24T18:30:13.843Z,14.40
2019-04-24T18:31:18.986Z,14.40
2019-04-24T18:32:26.662Z,14.40
2019-04-24T18:33:31.763Z,14.30
2019-04-24T18:34:37.582Z,14.20
2019-04-24T18:35:45.112Z,14.10
2019-04-24T18:36:51.579Z,14.20
2019-04-24T18:38:06.768Z,14.10
2019-04-24T18:39:16.242Z,14.10
2019-04-24T18:40:13.865Z,14.10
2019-04-24T18:41:19.006Z,14.00
2019-04-24T18:42:27.600Z,13.90
2019-04-24T18:43:32.832Z,14.00
2019-04-24T18:44:39.029Z,14.00
2019-04-24T18:45:48.228Z,14.00
2019-04-24T18:46:55.952Z,14.00
2019-04-24T18:48:02.212Z,14.00
2019-04-24T18:49:07.352Z,14.00
2019-04-24T18:50:18.246Z,14.00
2019-04-24T18:51:27.029Z,13.80
2019-04-24T18:52:49.170Z,13.90
2019-04-24T18:53:54.208Z,13.90
2019-04-24T18:55:03.456Z,13.90
2019-04-24T18:56:12.075Z,14.00
2019-04-24T18:57:15.733Z,13.90
2019-04-24T18:58:21.949Z,14.00
2019-04-24T18:59:26.990Z,13.90
2019-04-24T19:00:36.327Z,13.90
2019-04-24T19:01:45.175Z,13.90
2019-04-24T19:03:03.229Z,13.90
2019-04-24T19:04:08.368Z,13.80
2019-04-24T19:05:15.761Z,13.90
2019-04-24T19:06:31.397Z,13.90
2019-04-24T19:07:33.415Z,13.80
2019-04-24T19:08:45.451Z,13.80
2019-04-24T19:09:56.565Z,13.80
2019-04-24T19:11:02.408Z,13.80
2019-04-24T19:12:13.077Z,13.90
2019-04-24T19:13:34.035Z,13.90
2019-04-24T19:14:32.967Z,14.00
2019-04-24T19:15:38.267Z,14.00
2019-04-24T19:16:55.156Z,14.00
2019-04-24T19:18:01.519Z,13.90
2019-04-24T19:19:15.845Z,13.90
2019-04-24T19:20:22.261Z,13.90
2019-04-24T19:21:34.317Z,13.80
2019-04-24T19:22:39.408Z,13.80
2019-04-24T19:23:56.517Z,13.70
2019-04-24T19:25:01.942Z,13.70
2019-04-24T19:26:09.638Z,13.60
2019-04-24T19:27:15.860Z,13.50
2019-04-24T19:28:21.553Z,13.50
2019-04-24T19:29:26.403Z,13.40
2019-04-24T19:30:31.892Z,13.40
2019-04-24T19:31:37.407Z,13.30
2019-04-24T19:32:42.183Z,13.40
2019-04-24T19:33:48.291Z,13.50
2019-04-24T19:34:57.393Z,13.50
2019-04-24T19:36:08.226Z,13.50
2019-04-24T19:37:19.618Z,13.60
2019-04-24T19:38:24.966Z,13.60
2019-04-24T19:39:32.144Z,13.60
2019-04-24T19:40:40.273Z,13.60
2019-04-24T19:41:48.112Z,13.70
2019-04-24T19:42:55.358Z,13.60
2019-04-24T19:44:06.622Z,13.60
2019-04-24T19:45:14.818Z,13.60
2019-04-24T19:46:20.641Z,13.70
2019-04-24T19:47:36.558Z,13.70
2019-04-24T19:48:36.174Z,13.70
2019-04-24T19:49:42.651Z,13.70
2019-04-24T19:50:53.244Z,13.70
2019-04-24T19:52:05.432Z,13.60
2019-04-24T19:53:20.352Z,13.60
2019-04-24T19:54:27.138Z,13.60
2019-04-24T19:55:38.588Z,13.50
2019-04-24T19:56:46.514Z,13.50
2019-04-24T19:57:52.503Z,13.50
2019-04-24T19:59:03.183Z,13.50
2019-04-24T20:00:09.442Z,13.50
2019-04-24T20:01:15.789Z,13.50
2019-04-24T20:02:21.631Z,13.50
2019-04-24T20:03:30.226Z,13.50
2019-04-24T20:04:41.870Z,13.50
2019-04-24T20:05:46.617Z,13.50
2019-04-24T20:06:55.972Z,13.50
2019-04-24T20:08:03.661Z,13.50
2019-04-24T20:09:26.658Z,13.50
2019-04-24T20:10:51.767Z,13.50
2019-04-24T20:12:01.388Z,13.50
2019-04-24T20:13:07.203Z,13.50
2019-04-24T20:14:33.623Z,13.40
2019-04-24T20:15:41.935Z,13.50
2019-04-24T20:16:49.245Z,13.40
2019-04-24T20:17:54.202Z,13.30
2019-04-24T20:18:59.351Z,13.30
2019-04-24T20:20:04.598Z,13.30
2019-04-24T20:21:11.080Z,13.20
2019-04-24T20:22:22.914Z,13.10
2019-04-24T20:23:36.381Z,13.20
2019-04-24T20:24:36.038Z,13.20
2019-04-24T20:25:42.825Z,13.10
2019-04-24T20:26:52.253Z,13.10
2019-04-24T20:28:01.528Z,13.00
2019-04-24T20:29:06.479Z,13.00
2019-04-24T20:30:12.156Z,13.00
2019-04-24T20:31:17.902Z,13.00
2019-04-24T20:32:29.392Z,13.00
2019-04-24T20:33:36.002Z,13.00
2019-04-24T20:34:41.887Z,13.00
2019-04-24T20:35:48.730Z,13.00
2019-04-24T20:36:55.060Z,13.00
2019-04-24T20:38:02.255Z,13.00
2019-04-24T20:39:11.006Z,12.90
2019-04-24T20:40:18.991Z,12.90
2019-04-24T20:41:27.305Z,12.80
2019-04-24T20:42:44.779Z,12.90
2019-04-24T20:43:51.869Z,12.80
2019-04-24T20:45:02.709Z,12.80
2019-04-24T20:46:10.195Z,12.80
2019-04-24T20:47:19.177Z,12.80
2019-04-24T20:49:01.191Z,12.70
2019-04-24T20:50:13.395Z,12.70
2019-04-24T20:51:22.140Z,12.70
2019-04-24T20:52:33.445Z,12.70
2019-04-24T20:53:40.275Z,12.70
2019-04-24T20:54:45.165Z,12.70
2019-04-24T20:55:51.327Z,12.70
2019-04-24T20:57:07.979Z,12.70
2019-04-24T20:58:07.605Z,12.60
2019-04-24T20:59:12.880Z,12.60
2019-04-24T21:00:22.633Z,12.60
2019-04-24T21:01:34.060Z,12.60
2019-04-24T21:02:45.143Z,12.60
2019-04-24T21:03:57.839Z,12.70
2019-04-24T21:05:05.221Z,12.60
2019-04-24T21:06:39.805Z,12.60
2019-04-24T21:08:09.616Z,12.60
2019-04-24T21:09:34.618Z,12.70
2019-04-24T21:10:39.688Z,12.60
2019-04-24T21:11:44.389Z,12.60
2019-04-24T21:12:51.664Z,12.50
2019-04-24T21:13:57.027Z,12.60
2019-04-24T21:15:35.703Z,12.60
2019-04-24T21:16:40.420Z,12.50
2019-04-24T21:17:45.403Z,12.50